createdAt,value
2018-06-02T00:02:13.541Z,5.10
2018-06-02T00:04:40.964Z,5.47
2018-06-02T00:07:09.301Z,5.12
2018-06-02T00:09:36.896Z,5.75
2018-06-02T00:12:05.114Z,5.43
2018-06-02T00:14:32.555Z,4.95
2018-06-02T00:16:59.974Z,4.93
2018-06-02T00:19:28.164Z,5.22
2018-06-02T00:21:56.690Z,5.20
2018-06-02T00:24:24.119Z,5.60
2018-06-02T00:26:51.608Z,4.93
2018-06-02T00:29:19.051Z,6.53
2018-06-02T00:31:46.726Z,5.45
2018-06-02T00:34:14.209Z,5.90
2018-06-02T00:36:41.655Z,5.62
2018-06-02T00:39:09.087Z,5.32
2018-06-02T00:41:36.649Z,6.22
2018-06-02T00:44:04.522Z,5.05
2018-06-02T00:46:31.946Z,5.47
2018-06-02T00:48:59.383Z,5.93
2018-06-02T00:51:26.814Z,5.45
2018-06-02T00:53:54.271Z,5.50
2018-06-02T00:56:21.723Z,5.47
2018-06-02T00:58:49.162Z,5.70
2018-06-02T01:01:16.762Z,5.62
2018-06-02T01:03:44.200Z,5.87
2018-06-02T01:06:11.613Z,4.80
2018-06-02T01:08:39.059Z,5.85
2018-06-02T01:11:07.250Z,5.97
2018-06-02T01:13:34.673Z,5.20
2018-06-02T01:16:02.102Z,5.70
2018-06-02T01:18:29.527Z,5.93
2018-06-02T01:20:57.074Z,4.95
2018-06-02T01:23:24.441Z,5.57
2018-06-02T01:25:52.064Z,5.60
2018-06-02T01:28:19.504Z,6.53
2018-06-02T01:30:46.941Z,6.47
2018-06-02T01:33:14.384Z,5.45
2018-06-02T01:35:41.819Z,5.90
2018-06-02T01:38:09.391Z,5.80
2018-06-02T01:40:36.846Z,5.65
2018-06-02T01:43:04.325Z,6.40
2018-06-02T01:45:31.798Z,6.15
2018-06-02T01:47:59.237Z,6.00
2018-06-02T01:50:26.732Z,6.15
2018-06-02T01:52:54.263Z,5.75
2018-06-02T01:55:21.704Z,6.28
2018-06-02T01:57:49.222Z,5.97
2018-06-02T02:00:16.652Z,6.10
2018-06-02T02:02:44.292Z,6.25
2018-06-02T02:05:11.693Z,5.55
2018-06-02T02:07:40.641Z,4.75
2018-06-02T02:10:08.138Z,5.97
2018-06-02T02:12:37.089Z,6.40
2018-06-02T02:15:04.816Z,7.55
2018-06-02T02:17:33.003Z,6.68
2018-06-02T02:20:00.429Z,7.72
2018-06-02T02:22:27.861Z,6.28
2018-06-02T02:24:57.531Z,7.50
2018-06-02T02:27:25.008Z,6.90
2018-06-02T02:29:52.510Z,6.90
2018-06-02T02:32:19.957Z,8.13
2018-06-02T02:34:47.489Z,8.93
2018-06-02T02:37:14.926Z,7.40
2018-06-02T02:39:42.594Z,6.73
2018-06-02T02:42:10.771Z,7.40
2018-06-02T02:44:38.250Z,7.90
2018-06-02T02:47:05.700Z,7.13
2018-06-02T02:49:33.138Z,7.27
2018-06-02T02:52:00.558Z,7.03
2018-06-02T02:54:27.982Z,7.10
2018-06-02T02:56:55.426Z,6.90
2018-06-02T02:59:23.090Z,5.77
2018-06-02T03:01:50.498Z,6.73
2018-06-02T03:04:18.961Z,6.82
2018-06-02T03:06:47.154Z,5.83
2018-06-02T03:09:14.666Z,5.70
2018-06-02T03:11:42.150Z,7.32
2018-06-02T03:14:10.397Z,7.00
2018-06-02T03:16:37.879Z,7.53
2018-06-02T03:19:05.323Z,5.10
2018-06-02T03:21:33.572Z,5.72
2018-06-02T03:24:01.071Z,6.12
2018-06-02T03:26:28.494Z,7.53
2018-06-02T03:28:55.928Z,6.82
2018-06-02T03:31:24.425Z,6.72
2018-06-02T03:33:51.858Z,8.33
2018-06-02T03:36:19.282Z,8.85
2018-06-02T03:38:47.962Z,7.35
2018-06-02T03:41:15.448Z,7.20
2018-06-02T03:43:43.694Z,7.00
2018-06-02T03:46:11.119Z,7.45
2018-06-02T03:48:38.640Z,6.65
2018-06-02T03:51:06.154Z,6.97
2018-06-02T03:53:34.674Z,6.10
2018-06-02T03:56:02.105Z,6.97
2018-06-02T03:58:29.549Z,7.90
2018-06-02T04:00:57.058Z,6.85
2018-06-02T04:03:25.985Z,7.57
2018-06-02T04:05:53.814Z,6.90
2018-06-02T04:08:21.247Z,7.68
2018-06-02T04:10:48.682Z,7.80
2018-06-02T04:13:16.156Z,6.78
2018-06-02T04:15:43.656Z,5.93
2018-06-02T04:18:11.911Z,7.37
2018-06-02T04:20:39.353Z,8.27
2018-06-02T04:23:06.777Z,6.45
2018-06-02T04:25:34.224Z,7.12
2018-06-02T04:28:02.475Z,6.32
2018-06-02T04:30:29.913Z,7.28
2018-06-02T04:32:57.327Z,9.68
2018-06-02T04:35:24.862Z,9.48
2018-06-02T04:37:53.062Z,10.68
2018-06-02T04:40:20.689Z,10.52
2018-06-02T04:42:48.170Z,8.35
2018-06-02T04:45:15.738Z,11.38
2018-06-02T04:47:43.209Z,9.80
2018-06-02T04:50:10.995Z,14.82
2018-06-02T04:52:38.441Z,14.82
2018-06-02T04:55:06.087Z,22.90
2018-06-02T04:57:34.121Z,26.95
2018-06-02T05:00:02.691Z,35.72
2018-06-02T05:02:30.131Z,31.15
2018-06-02T05:04:57.682Z,37.95
2018-06-02T05:07:25.122Z,35.92
2018-06-02T05:09:52.704Z,31.27
2018-06-02T05:12:20.258Z,32.50
2018-06-02T05:14:47.686Z,32.13
2018-06-02T05:17:15.189Z,29.40
2018-06-02T05:19:42.630Z,26.05
2018-06-02T05:22:10.066Z,33.10
2018-06-02T05:24:37.547Z,33.40
2018-06-02T05:27:05.002Z,29.45
2018-06-02T05:29:32.460Z,28.00
2018-06-02T05:31:59.994Z,30.48
2018-06-02T05:34:27.520Z,31.17
2018-06-02T05:36:55.728Z,30.45
2018-06-02T05:39:23.234Z,30.95
2018-06-02T05:41:50.797Z,32.55
2018-06-02T05:44:18.237Z,39.90
2018-06-02T05:46:46.507Z,44.47
2018-06-02T05:49:13.976Z,43.97
2018-06-02T05:51:41.526Z,42.42
2018-06-02T05:54:08.965Z,45.65
2018-06-02T05:56:36.491Z,44.67
2018-06-02T05:59:04.716Z,47.62
2018-06-02T06:01:32.179Z,48.47
2018-06-02T06:04:00.580Z,44.00
2018-06-02T06:06:28.043Z,40.53
2018-06-02T06:08:55.501Z,44.53
2018-06-02T06:11:22.947Z,47.78
2018-06-02T06:13:50.654Z,50.67
2018-06-02T06:16:18.878Z,49.47
2018-06-02T06:18:46.316Z,45.65
2018-06-02T06:21:13.826Z,46.50
2018-06-02T06:23:41.347Z,44.65
2018-06-02T06:26:08.800Z,45.10
2018-06-02T06:28:36.271Z,39.00
2018-06-02T06:31:03.777Z,43.40
2018-06-02T06:33:31.202Z,38.30
2018-06-02T06:35:58.626Z,46.08
2018-06-02T06:38:26.065Z,46.97
2018-06-02T06:40:53.520Z,46.90
2018-06-02T06:43:20.991Z,36.40
2018-06-02T06:45:48.482Z,44.00
2018-06-02T06:48:15.946Z,44.78
2018-06-02T06:50:44.244Z,44.47
2018-06-02T06:53:11.668Z,43.80
2018-06-02T06:55:39.179Z,42.08
2018-06-02T06:58:07.431Z,40.53
2018-06-02T07:00:34.872Z,40.33
2018-06-02T07:03:02.312Z,39.17
2018-06-02T07:05:29.758Z,36.45
2018-06-02T07:07:57.208Z,39.03
2018-06-02T07:10:25.758Z,37.00
2018-06-02T07:12:53.987Z,40.75
2018-06-02T07:15:21.539Z,40.15
2018-06-02T07:17:49.009Z,36.08
2018-06-02T07:20:16.524Z,36.47
2018-06-02T07:22:45.043Z,31.27
2018-06-02T07:25:12.496Z,32.83
2018-06-02T07:27:39.962Z,33.33
2018-06-02T07:30:07.390Z,27.67
2018-06-02T07:32:34.935Z,24.58
2018-06-02T07:35:03.171Z,21.42
2018-06-02T07:37:30.620Z,25.35
2018-06-02T07:39:58.626Z,22.95
2018-06-02T07:42:27.580Z,25.42
2018-06-02T07:44:55.328Z,20.30
2018-06-02T07:47:22.836Z,24.52
2018-06-02T07:49:51.831Z,22.95
2018-06-02T07:52:19.210Z,24.90
2018-06-02T07:54:47.907Z,23.85
2018-06-02T07:57:15.582Z,22.05
2018-06-02T07:59:43.080Z,24.05
2018-06-02T08:02:10.547Z,22.27
2018-06-02T08:04:38.007Z,30.75
2018-06-02T08:07:05.458Z,28.27
2018-06-02T08:09:32.904Z,20.75
2018-06-02T08:12:00.388Z,20.62
2018-06-02T08:14:27.823Z,21.87
2018-06-02T08:16:55.279Z,22.67
2018-06-02T08:19:22.783Z,20.10
2018-06-02T08:21:50.988Z,19.52
2018-06-02T08:24:18.476Z,20.15
2018-06-02T08:26:46.051Z,18.08
2018-06-02T08:29:13.692Z,20.25
2018-06-02T08:31:42.570Z,22.08
2018-06-02T08:34:10.001Z,20.77
2018-06-02T08:36:37.518Z,21.05
2018-06-02T08:39:05.088Z,16.83
2018-06-02T08:41:32.605Z,18.17
2018-06-02T08:44:00.045Z,18.75
2018-06-02T08:46:27.480Z,19.62
2018-06-02T08:48:55.699Z,22.85
2018-06-02T08:51:23.178Z,24.33
2018-06-02T08:53:50.638Z,24.30
2018-06-02T08:56:18.090Z,22.30
2018-06-02T08:58:45.531Z,24.02
2018-06-02T09:01:12.986Z,25.05
2018-06-02T09:03:41.545Z,23.52
2018-06-02T09:06:09.119Z,21.45
2018-06-02T09:08:36.901Z,24.40
2018-06-02T09:11:04.349Z,22.13
2018-06-02T09:13:31.867Z,24.08
2018-06-02T09:16:00.114Z,24.90
2018-06-02T09:18:27.576Z,25.08
2018-06-02T09:20:55.826Z,19.98
2018-06-02T09:23:23.288Z,26.33
2018-06-02T09:25:50.741Z,21.55
2018-06-02T09:28:19.254Z,27.85
2018-06-02T09:30:46.796Z,21.87
2018-06-02T09:33:14.378Z,24.40
2018-06-02T09:35:42.034Z,24.83
2018-06-02T09:38:09.554Z,23.60
2018-06-02T09:40:37.008Z,28.52
2018-06-02T09:43:04.483Z,22.92
2018-06-02T09:45:32.138Z,26.05
2018-06-02T09:47:59.618Z,20.25
2018-06-02T09:50:27.262Z,26.80
2018-06-02T09:52:54.699Z,23.38
2018-06-02T09:55:22.153Z,25.15
2018-06-02T09:57:49.642Z,22.45
2018-06-02T10:00:17.082Z,24.33
2018-06-02T10:02:44.557Z,24.15
2018-06-02T10:05:17.718Z,22.35
2018-06-02T10:07:46.083Z,22.80
2018-06-02T10:10:14.014Z,24.30
2018-06-02T10:12:41.546Z,22.77
2018-06-02T10:15:09.278Z,19.42
2018-06-02T10:17:37.507Z,21.75
2018-06-02T10:20:04.951Z,23.45
2018-06-02T10:22:32.891Z,22.25
2018-06-02T10:25:01.320Z,25.23
2018-06-02T10:27:28.889Z,20.85
2018-06-02T10:29:57.162Z,23.35
2018-06-02T10:32:24.746Z,22.80
2018-06-02T10:34:52.983Z,25.77
2018-06-02T10:37:26.305Z,24.15
2018-06-02T10:39:53.744Z,26.77
2018-06-02T10:42:22.554Z,24.17
2018-06-02T10:44:51.539Z,19.00
2018-06-02T10:47:20.936Z,20.30
2018-06-02T10:49:49.920Z,17.05
2018-06-02T10:52:17.496Z,17.90
2018-06-02T10:54:45.046Z,16.40
2018-06-02T10:57:13.281Z,16.02
2018-06-02T10:59:40.802Z,16.42
2018-06-02T11:02:09.446Z,15.10
2018-06-02T11:04:37.986Z,16.58
2018-06-02T11:07:07.317Z,18.10
2018-06-02T11:09:35.022Z,17.65
2018-06-02T11:12:02.542Z,16.45
2018-06-02T11:14:29.985Z,15.43
2018-06-02T11:16:57.413Z,16.80
2018-06-02T11:19:25.705Z,16.98
2018-06-02T11:21:54.138Z,15.52
2018-06-02T11:24:21.571Z,16.05
2018-06-02T11:26:49.537Z,16.00
2018-06-02T11:29:17.047Z,14.65
2018-06-02T11:31:44.498Z,16.27
2018-06-02T11:34:12.746Z,15.88
2018-06-02T11:36:40.397Z,15.90
2018-06-02T11:39:08.720Z,14.43
2018-06-02T11:41:37.159Z,14.15
2018-06-02T11:44:05.620Z,14.00
2018-06-02T11:46:34.823Z,12.43
2018-06-02T11:49:02.332Z,14.25
2018-06-02T11:51:29.779Z,13.40
2018-06-02T11:53:57.250Z,12.90
2018-06-02T11:56:24.702Z,13.95
2018-06-02T11:58:52.445Z,13.45
2018-06-02T12:01:19.925Z,14.07
2018-06-02T12:03:47.377Z,15.18
2018-06-02T12:06:14.836Z,13.10
2018-06-02T12:08:43.420Z,14.65
2018-06-02T12:11:11.682Z,13.45
2018-06-02T12:13:39.190Z,12.60
2018-06-02T12:16:06.715Z,13.45
2018-06-02T12:18:34.144Z,14.30
2018-06-02T12:21:01.604Z,14.02
2018-06-02T12:23:29.075Z,13.43
2018-06-02T12:25:57.589Z,11.77
2018-06-02T12:28:25.233Z,16.33
2018-06-02T12:30:54.004Z,19.67
2018-06-02T12:33:21.518Z,17.92
2018-06-02T12:35:50.346Z,23.05
2018-06-02T12:38:18.188Z,22.42
2018-06-02T12:40:45.721Z,17.27
2018-06-02T12:43:13.197Z,21.20
2018-06-02T12:45:41.475Z,18.30
2018-06-02T12:48:22.121Z,18.67
2018-06-02T12:50:51.140Z,15.77
2018-06-02T12:53:19.789Z,17.58
2018-06-02T12:55:47.250Z,14.25
2018-06-02T12:58:16.937Z,17.10
2018-06-02T13:00:49.541Z,20.05
2018-06-02T13:03:16.986Z,17.37
2018-06-02T13:05:44.459Z,15.68
2018-06-02T13:08:11.977Z,15.35
2018-06-02T13:10:39.421Z,15.05
2018-06-02T13:13:06.894Z,15.23
2018-06-02T13:15:34.355Z,15.40
2018-06-02T13:18:01.846Z,15.02
2018-06-02T13:20:29.326Z,13.13
2018-06-02T13:22:57.530Z,13.38
2018-06-02T13:25:25.024Z,12.63
2018-06-02T13:27:52.471Z,14.40
2018-06-02T13:30:19.940Z,13.23
2018-06-02T13:32:48.224Z,15.05
2018-06-02T13:35:18.652Z,13.20
2018-06-02T13:37:46.125Z,13.77
2018-06-02T13:40:14.473Z,12.50
2018-06-02T13:42:41.954Z,13.38
2018-06-02T13:45:10.528Z,12.80
2018-06-02T13:47:37.969Z,12.88
2018-06-02T13:50:05.469Z,12.23
2018-06-02T13:52:33.896Z,12.20
2018-06-02T13:55:01.447Z,12.95
2018-06-02T13:57:28.924Z,11.77
2018-06-02T13:59:57.270Z,13.70
2018-06-02T14:02:25.503Z,14.35
2018-06-02T14:04:53.039Z,15.13
2018-06-02T14:07:21.571Z,14.77
2018-06-02T14:09:49.874Z,14.20
2018-06-02T14:15:10.779Z,15.82
2018-06-02T14:17:40.440Z,14.15
2018-06-02T14:20:07.916Z,15.85
2018-06-02T14:22:36.567Z,13.80
2018-06-02T14:25:06.974Z,13.02
2018-06-02T14:27:35.394Z,13.15
2018-06-02T14:30:02.847Z,13.15
2018-06-02T14:32:30.415Z,12.13
2018-06-02T14:34:58.573Z,11.73
2018-06-02T14:37:26.540Z,12.95
2018-06-02T14:39:54.074Z,12.63
2018-06-02T14:42:22.306Z,12.65
2018-06-02T14:44:49.966Z,12.48
2018-06-02T14:47:17.453Z,14.68
2018-06-02T14:49:50.517Z,12.48
2018-06-02T14:52:18.302Z,12.20
2018-06-02T14:54:46.958Z,11.12
2018-06-02T14:57:14.417Z,9.40
2018-06-02T14:59:42.176Z,11.50
2018-06-02T15:02:09.600Z,10.38
2018-06-02T15:04:37.501Z,9.65
2018-06-02T15:07:05.079Z,11.12
2018-06-02T15:09:32.506Z,10.80
2018-06-02T15:11:59.987Z,10.32
2018-06-02T15:14:27.433Z,10.60
2018-06-02T15:16:55.510Z,8.88
2018-06-02T15:19:22.943Z,10.18
2018-06-02T15:21:50.394Z,8.63
2018-06-02T15:24:17.887Z,9.45
2018-06-02T15:26:45.301Z,9.55
2018-06-02T15:29:12.835Z,10.40
2018-06-02T15:31:41.268Z,10.95
2018-06-02T15:34:08.718Z,11.75
2018-06-02T15:36:36.180Z,11.80
2018-06-02T15:39:03.613Z,11.98
2018-06-02T15:41:31.062Z,11.98
2018-06-02T15:43:59.254Z,9.98
2018-06-02T15:46:27.658Z,12.73
2018-06-02T15:48:55.095Z,12.48
2018-06-02T15:51:22.549Z,12.90
2018-06-02T15:53:50.043Z,14.07
2018-06-02T15:56:17.457Z,14.27
2018-06-02T15:58:44.935Z,13.18
2018-06-02T16:01:12.410Z,13.68
2018-06-02T16:03:39.909Z,12.40
2018-06-02T16:06:07.329Z,15.60
2018-06-02T16:08:34.847Z,12.37
2018-06-02T16:11:02.589Z,13.00
2018-06-02T16:13:30.055Z,11.68
2018-06-02T16:15:58.290Z,11.90
2018-06-02T16:18:26.072Z,12.13
2018-06-02T16:20:54.330Z,11.60
2018-06-02T16:23:21.771Z,12.40
2018-06-02T16:25:49.206Z,15.20
2018-06-02T16:28:16.652Z,11.68
2018-06-02T16:30:45.398Z,12.40
2018-06-02T16:33:12.990Z,14.02
2018-06-02T16:35:41.622Z,12.55
2018-06-02T16:38:09.078Z,14.32
2018-06-02T16:40:37.351Z,16.45
2018-06-02T16:43:04.865Z,12.75
2018-06-02T16:45:33.070Z,13.25
2018-06-02T16:48:01.318Z,14.60
2018-06-02T16:50:29.785Z,15.52
2018-06-02T16:52:57.313Z,15.15
2018-06-02T16:55:24.794Z,13.07
2018-06-02T16:57:52.266Z,12.27
2018-06-02T17:00:19.729Z,13.38
2018-06-02T17:02:48.578Z,14.02
2018-06-02T17:05:16.037Z,13.02
2018-06-02T17:07:43.483Z,14.95
2018-06-02T17:10:10.949Z,15.65
2018-06-02T17:12:40.834Z,14.32
2018-06-02T17:15:08.354Z,13.68
2018-06-02T17:17:35.842Z,15.27
2018-06-02T17:20:05.057Z,15.18
2018-06-02T17:22:33.268Z,16.65
2018-06-02T17:25:00.705Z,19.65
2018-06-02T17:27:28.146Z,16.42
2018-06-02T17:29:55.848Z,18.08
2018-06-02T17:32:23.266Z,16.73
2018-06-02T17:34:50.702Z,18.70
2018-06-02T17:37:18.922Z,18.90
2018-06-02T17:39:46.406Z,17.60
2018-06-02T17:42:13.896Z,21.10
2018-06-02T17:44:42.202Z,21.00
2018-06-02T17:47:09.890Z,18.30
2018-06-02T17:49:37.381Z,20.05
2018-06-02T17:52:04.880Z,19.45
2018-06-02T17:54:32.332Z,19.10
2018-06-02T17:57:00.666Z,21.15
2018-06-02T17:59:28.188Z,20.42
2018-06-02T18:01:55.662Z,26.25
2018-06-02T18:04:23.110Z,21.58
2018-06-02T18:06:50.564Z,23.55
2018-06-02T18:09:18.071Z,25.58
2018-06-02T18:11:45.511Z,22.98
2018-06-02T18:14:13.147Z,25.50
2018-06-02T18:16:40.611Z,21.00
2018-06-02T18:19:08.102Z,26.20
2018-06-02T18:21:35.720Z,27.80
2018-06-02T18:24:03.305Z,24.52
2018-06-02T18:26:31.628Z,25.12
2018-06-02T18:28:59.851Z,24.23
2018-06-02T18:31:28.782Z,20.95
2018-06-02T18:33:56.242Z,20.80
2018-06-02T18:36:24.514Z,20.75
2018-06-02T18:38:51.960Z,23.35
2018-06-02T18:41:20.065Z,25.92
2018-06-02T18:43:48.588Z,19.55
2018-06-02T18:46:16.275Z,21.10
2018-06-02T18:48:43.719Z,22.83
2018-06-02T18:51:11.307Z,22.02
2018-06-02T18:53:39.272Z,25.37
2018-06-02T18:56:06.703Z,24.98
2018-06-02T18:58:34.169Z,22.90
2018-06-02T19:01:01.692Z,24.58
2018-06-02T19:03:29.061Z,24.30
2018-06-02T19:05:56.518Z,23.83
2018-06-02T19:08:23.997Z,22.20
2018-06-02T19:10:51.447Z,22.75
2018-06-02T19:13:18.903Z,23.90
2018-06-02T19:15:46.746Z,24.55
2018-06-02T19:18:14.248Z,24.85
2018-06-02T19:20:41.690Z,27.40
2018-06-02T19:23:09.542Z,27.15
2018-06-02T19:25:37.006Z,24.52
2018-06-02T19:28:05.534Z,25.50
2018-06-02T19:30:33.261Z,23.50
2018-06-02T19:33:00.713Z,23.58
2018-06-02T19:35:32.654Z,26.85
2018-06-02T19:38:00.335Z,25.30
2018-06-02T19:40:29.150Z,25.85
2018-06-02T19:42:57.580Z,26.33
2018-06-02T19:45:25.285Z,23.48
2018-06-02T19:47:52.874Z,25.62
2018-06-02T19:50:21.158Z,27.02
2018-06-02T19:52:49.722Z,27.85
2018-06-02T19:55:17.174Z,24.33
2018-06-02T19:57:44.651Z,27.62
2018-06-02T20:00:12.115Z,28.98
2018-06-02T20:02:39.981Z,27.45
2018-06-02T20:05:12.255Z,27.70
2018-06-02T20:07:39.742Z,31.90
2018-06-02T20:10:11.236Z,33.30
2018-06-02T20:12:38.807Z,35.55
2018-06-02T20:15:06.298Z,33.20
2018-06-02T20:17:36.848Z,32.30
2018-06-02T20:20:14.045Z,36.67
2018-06-02T20:22:51.666Z,35.67
2018-06-02T20:25:19.131Z,38.92
2018-06-02T20:27:46.659Z,39.72
2018-06-02T20:30:14.453Z,39.08
2018-06-02T20:32:42.146Z,39.67
2018-06-02T20:35:10.356Z,37.65
2018-06-02T20:37:37.862Z,33.30
2018-06-02T20:40:06.171Z,37.63
2018-06-02T20:42:33.596Z,40.53
2018-06-02T20:45:03.283Z,37.97
2018-06-02T20:47:30.726Z,37.22
2018-06-02T20:49:58.804Z,35.72
2018-06-02T20:52:26.237Z,35.50
2018-06-02T20:54:53.673Z,37.58
2018-06-02T20:57:22.391Z,32.47
2018-06-02T20:59:49.853Z,33.03
2018-06-02T21:02:17.940Z,37.60
2018-06-02T21:04:45.382Z,40.90
2018-06-02T21:07:12.818Z,40.47
2018-06-02T21:09:40.277Z,35.47
2018-06-02T21:12:08.581Z,37.97
2018-06-02T21:14:36.098Z,41.58
2018-06-02T21:17:04.303Z,37.55
2018-06-02T21:19:31.796Z,35.53
2018-06-02T21:21:59.449Z,41.60
2018-06-02T21:24:26.910Z,32.50
2018-06-02T21:26:54.388Z,34.95
2018-06-02T21:29:22.143Z,36.97
2018-06-02T21:31:49.878Z,38.05
2018-06-02T21:34:17.334Z,36.17
2018-06-02T21:36:46.724Z,36.55
2018-06-02T21:39:14.219Z,39.25
2018-06-02T21:41:41.702Z,34.00
2018-06-02T21:44:09.256Z,32.28
2018-06-02T21:46:37.602Z,33.80
2018-06-02T21:49:05.221Z,30.77
2018-06-02T21:51:33.425Z,33.05
2018-06-02T21:54:00.858Z,34.40
2018-06-02T21:56:29.070Z,34.80
2018-06-02T21:58:56.515Z,39.53
2018-06-02T22:01:23.956Z,34.70
2018-06-02T22:03:51.397Z,37.97
2018-06-02T22:06:19.856Z,37.45
2018-06-02T22:08:47.286Z,36.33
2018-06-02T22:11:14.736Z,32.88
2018-06-02T22:13:42.162Z,33.78
2018-06-02T22:16:09.754Z,37.27
2018-06-02T22:18:37.249Z,33.75
2018-06-02T22:21:05.449Z,30.23
2018-06-02T22:23:33.674Z,33.28
2018-06-02T22:26:01.181Z,36.50
2018-06-02T22:28:29.384Z,31.52
2018-06-02T22:30:57.039Z,31.60
2018-06-02T22:33:24.856Z,34.22
2018-06-02T22:35:52.298Z,31.87
2018-06-02T22:38:19.838Z,34.20
2018-06-02T22:40:47.310Z,36.63
2018-06-02T22:43:14.744Z,31.08
2018-06-02T22:45:42.217Z,41.85
2018-06-02T22:48:09.673Z,35.30
2018-06-02T22:50:37.122Z,34.10
2018-06-02T22:53:04.637Z,35.72
2018-06-02T22:55:32.053Z,36.83
2018-06-02T22:57:59.711Z,41.47
2018-06-02T23:00:27.145Z,37.70
2018-06-02T23:02:54.648Z,38.10
2018-06-02T23:05:22.122Z,39.00
2018-06-02T23:07:49.671Z,38.63
2018-06-02T23:10:17.106Z,35.63
2018-06-02T23:12:45.306Z,40.97
2018-06-02T23:15:12.842Z,33.95
2018-06-02T23:17:40.274Z,32.80
2018-06-02T23:20:07.756Z,34.65
2018-06-02T23:22:40.181Z,37.88
2018-06-02T23:25:08.386Z,38.45
2018-06-02T23:27:36.167Z,40.80
2018-06-02T23:30:03.606Z,37.00
2018-06-02T23:32:31.059Z,35.30
2018-06-02T23:34:58.490Z,31.55
2018-06-02T23:37:26.778Z,37.47
2018-06-02T23:39:55.990Z,36.22
2018-06-02T23:42:23.449Z,28.17
2018-06-02T23:44:50.893Z,33.83
2018-06-02T23:47:19.090Z,35.05
2018-06-02T23:49:46.514Z,35.90
2018-06-02T23:52:14.726Z,32.03
2018-06-02T23:54:42.298Z,38.42
2018-06-02T23:57:09.752Z,34.70
2018-06-02T23:59:37.190Z,34.90
